sensor_id;sensor_type;location;lat;lon;timestamp;temperature;humidity
62809;DHT22;48848;39.002;-94.584;2023-05-20T00:00:51;23.20;48.80
62809;DHT22;48848;39.002;-94.584;2023-05-20T00:03:17;23.20;49.30
62809;DHT22;48848;39.002;-94.584;2023-05-20T00:05:47;23.30;48.90
62809;DHT22;48848;39.002;-94.584;2023-05-20T00:08:13;23.30;49.00
62809;DHT22;48848;39.002;-94.584;2023-05-20T00:10:39;23.30;48.90
62809;DHT22;48848;39.002;-94.584;2023-05-20T00:13:05;23.30;48.80
62809;DHT22;48848;39.002;-94.584;2023-05-20T00:15:32;23.30;48.80
62809;DHT22;48848;39.002;-94.584;2023-05-20T00:17:59;23.30;48.90
62809;DHT22;48848;39.002;-94.584;2023-05-20T00:20:25;23.30;48.80
62809;DHT22;48848;39.002;-94.584;2023-05-20T00:22:51;23.20;48.90
62809;DHT22;48848;39.002;-94.584;2023-05-20T00:25:17;23.30;48.60
62809;DHT22;48848;39.002;-94.584;2023-05-20T00:27:43;23.30;48.50
62809;DHT22;48848;39.002;-94.584;2023-05-20T00:30:09;23.20;48.50
62809;DHT22;48848;39.002;-94.584;2023-05-20T00:32:35;23.20;48.60
62809;DHT22;48848;39.002;-94.584;2023-05-20T00:35:01;23.20;48.70
62809;DHT22;48848;39.002;-94.584;2023-05-20T00:37:27;23.20;48.70
62809;DHT22;48848;39.002;-94.584;2023-05-20T00:39:53;23.20;48.60
62809;DHT22;48848;39.002;-94.584;2023-05-20T00:42:20;23.20;48.50
62809;DHT22;48848;39.002;-94.584;2023-05-20T00:44:46;23.20;48.30
62809;DHT22;48848;39.002;-94.584;2023-05-20T00:47:12;23.00;48.60
62809;DHT22;48848;39.002;-94.584;2023-05-20T00:49:38;23.00;48.60
62809;DHT22;48848;39.002;-94.584;2023-05-20T00:52:04;23.00;48.60
62809;DHT22;48848;39.002;-94.584;2023-05-20T00:54:30;23.00;48.60
62809;DHT22;48848;39.002;-94.584;2023-05-20T00:56:56;23.00;48.50
62809;DHT22;48848;39.002;-94.584;2023-05-20T00:59:24;23.00;48.60
62809;DHT22;48848;39.002;-94.584;2023-05-20T01:01:51;23.00;48.70
62809;DHT22;48848;39.002;-94.584;2023-05-20T01:04:16;22.90;48.80
62809;DHT22;48848;39.002;-94.584;2023-05-20T01:06:43;22.70;49.00
62809;DHT22;48848;39.002;-94.584;2023-05-20T01:09:10;22.60;49.50
62809;DHT22;48848;39.002;-94.584;2023-05-20T01:11:37;22.70;49.40
62809;DHT22;48848;39.002;-94.584;2023-05-20T01:14:07;22.80;49.00
62809;DHT22;48848;39.002;-94.584;2023-05-20T01:16:35;22.90;49.00
62809;DHT22;48848;39.002;-94.584;2023-05-20T01:19:01;23.00;48.70
62809;DHT22;48848;39.002;-94.584;2023-05-20T01:21:29;23.00;48.60
62809;DHT22;48848;39.002;-94.584;2023-05-20T01:23:55;22.90;48.70
62809;DHT22;48848;39.002;-94.584;2023-05-20T01:26:21;22.80;49.00
62809;DHT22;48848;39.002;-94.584;2023-05-20T01:28:51;22.90;49.00
62809;DHT22;48848;39.002;-94.584;2023-05-20T01:31:18;22.70;49.50
62809;DHT22;48848;39.002;-94.584;2023-05-20T01:33:46;22.70;49.60
62809;DHT22;48848;39.002;-94.584;2023-05-20T01:36:15;22.80;49.40
62809;DHT22;48848;39.002;-94.584;2023-05-20T01:38:41;22.80;49.10
62809;DHT22;48848;39.002;-94.584;2023-05-20T01:41:07;22.80;49.80
62809;DHT22;48848;39.002;-94.584;2023-05-20T01:43:33;22.90;49.20
62809;DHT22;48848;39.002;-94.584;2023-05-20T01:45:59;22.90;49.10
62809;DHT22;48848;39.002;-94.584;2023-05-20T01:48:27;22.90;48.90
62809;DHT22;48848;39.002;-94.584;2023-05-20T01:50:53;23.10;48.70
62809;DHT22;48848;39.002;-94.584;2023-05-20T01:53:18;23.40;48.30
62809;DHT22;48848;39.002;-94.584;2023-05-20T01:55:44;23.60;47.50
62809;DHT22;48848;39.002;-94.584;2023-05-20T01:58:10;23.60;47.10
62809;DHT22;48848;39.002;-94.584;2023-05-20T02:00:36;23.70;47.60
62809;DHT22;48848;39.002;-94.584;2023-05-20T02:03:02;23.80;47.40
62809;DHT22;48848;39.002;-94.584;2023-05-20T02:05:28;23.90;47.10
62809;DHT22;48848;39.002;-94.584;2023-05-20T02:07:55;23.90;46.90
62809;DHT22;48848;39.002;-94.584;2023-05-20T02:10:21;23.90;46.90
62809;DHT22;48848;39.002;-94.584;2023-05-20T02:12:46;23.90;46.70
62809;DHT22;48848;39.002;-94.584;2023-05-20T02:15:13;23.90;46.80
62809;DHT22;48848;39.002;-94.584;2023-05-20T02:17:39;23.90;46.30
62809;DHT22;48848;39.002;-94.584;2023-05-20T02:20:08;23.90;46.40
62809;DHT22;48848;39.002;-94.584;2023-05-20T02:22:34;24.00;46.30
62809;DHT22;48848;39.002;-94.584;2023-05-20T02:25:01;24.10;46.30
62809;DHT22;48848;39.002;-94.584;2023-05-20T02:27:26;24.00;46.70
62809;DHT22;48848;39.002;-94.584;2023-05-20T02:29:52;24.00;46.80
62809;DHT22;48848;39.002;-94.584;2023-05-20T02:32:18;24.00;46.60
62809;DHT22;48848;39.002;-94.584;2023-05-20T02:34:45;24.00;46.60
62809;DHT22;48848;39.002;-94.584;2023-05-20T02:37:11;24.00;46.60
62809;DHT22;48848;39.002;-94.584;2023-05-20T02:39:37;24.00;46.70
62809;DHT22;48848;39.002;-94.584;2023-05-20T02:42:03;24.00;46.80
62809;DHT22;48848;39.002;-94.584;2023-05-20T02:44:29;24.10;49.60
62809;DHT22;48848;39.002;-94.584;2023-05-20T02:46:55;24.10;46.70
62809;DHT22;48848;39.002;-94.584;2023-05-20T02:49:21;24.10;46.30
62809;DHT22;48848;39.002;-94.584;2023-05-20T02:51:46;24.00;45.80
62809;DHT22;48848;39.002;-94.584;2023-05-20T02:54:12;24.00;46.00
62809;DHT22;48848;39.002;-94.584;2023-05-20T02:56:38;24.00;45.90
62809;DHT22;48848;39.002;-94.584;2023-05-20T02:59:04;24.00;46.00
62809;DHT22;48848;39.002;-94.584;2023-05-20T03:01:31;23.90;45.90
62809;DHT22;48848;39.002;-94.584;2023-05-20T03:04:00;24.00;46.20
62809;DHT22;48848;39.002;-94.584;2023-05-20T03:06:26;24.00;46.40
62809;DHT22;48848;39.002;-94.584;2023-05-20T03:08:54;24.00;46.40
62809;DHT22;48848;39.002;-94.584;2023-05-20T03:11:20;24.00;46.50
62809;DHT22;48848;39.002;-94.584;2023-05-20T03:13:46;24.00;46.40
62809;DHT22;48848;39.002;-94.584;2023-05-20T03:16:12;24.00;46.70
62809;DHT22;48848;39.002;-94.584;2023-05-20T03:18:38;24.00;46.70
62809;DHT22;48848;39.002;-94.584;2023-05-20T03:21:03;24.00;46.50
62809;DHT22;48848;39.002;-94.584;2023-05-20T03:23:29;24.00;46.60
62809;DHT22;48848;39.002;-94.584;2023-05-20T03:25:55;23.90;46.30
62809;DHT22;48848;39.002;-94.584;2023-05-20T03:28:21;24.00;46.50
62809;DHT22;48848;39.002;-94.584;2023-05-20T03:30:47;23.90;46.30
62809;DHT22;48848;39.002;-94.584;2023-05-20T03:33:13;23.90;45.70
62809;DHT22;48848;39.002;-94.584;2023-05-20T03:35:39;23.90;45.80
62809;DHT22;48848;39.002;-94.584;2023-05-20T03:38:05;23.90;45.80
62809;DHT22;48848;39.002;-94.584;2023-05-20T03:40:31;23.90;45.60
62809;DHT22;48848;39.002;-94.584;2023-05-20T03:42:56;23.90;45.50
62809;DHT22;48848;39.002;-94.584;2023-05-20T03:45:22;23.90;45.60
62809;DHT22;48848;39.002;-94.584;2023-05-20T03:47:48;23.90;45.80
62809;DHT22;48848;39.002;-94.584;2023-05-20T03:50:14;23.90;45.90
62809;DHT22;48848;39.002;-94.584;2023-05-20T03:52:40;23.90;46.70
62809;DHT22;48848;39.002;-94.584;2023-05-20T03:55:06;24.00;45.50
62809;DHT22;48848;39.002;-94.584;2023-05-20T03:57:32;24.00;45.10
62809;DHT22;48848;39.002;-94.584;2023-05-20T03:59:58;24.00;44.80
62809;DHT22;48848;39.002;-94.584;2023-05-20T04:02:26;24.00;44.60
62809;DHT22;48848;39.002;-94.584;2023-05-20T04:04:52;24.10;44.40
62809;DHT22;48848;39.002;-94.584;2023-05-20T04:07:22;24.00;44.20
62809;DHT22;48848;39.002;-94.584;2023-05-20T04:09:48;24.10;44.10
62809;DHT22;48848;39.002;-94.584;2023-05-20T04:12:14;24.10;44.00
62809;DHT22;48848;39.002;-94.584;2023-05-20T04:14:40;24.10;43.90
62809;DHT22;48848;39.002;-94.584;2023-05-20T04:17:06;24.10;43.90
62809;DHT22;48848;39.002;-94.584;2023-05-20T04:19:32;24.10;44.20
62809;DHT22;48848;39.002;-94.584;2023-05-20T04:21:59;23.70;45.60
62809;DHT22;48848;39.002;-94.584;2023-05-20T04:24:25;23.40;46.10
62809;DHT22;48848;39.002;-94.584;2023-05-20T04:26:52;23.20;46.60
62809;DHT22;48848;39.002;-94.584;2023-05-20T04:29:18;23.00;46.80
62809;DHT22;48848;39.002;-94.584;2023-05-20T04:31:44;22.90;46.90
62809;DHT22;48848;39.002;-94.584;2023-05-20T04:34:10;22.80;47.10
62809;DHT22;48848;39.002;-94.584;2023-05-20T04:36:36;22.70;47.20
62809;DHT22;48848;39.002;-94.584;2023-05-20T04:39:02;22.70;47.40
62809;DHT22;48848;39.002;-94.584;2023-05-20T04:41:29;22.50;47.60
62809;DHT22;48848;39.002;-94.584;2023-05-20T04:43:55;22.40;47.70
62809;DHT22;48848;39.002;-94.584;2023-05-20T04:46:24;22.40;47.80
62809;DHT22;48848;39.002;-94.584;2023-05-20T04:48:50;22.20;48.10
62809;DHT22;48848;39.002;-94.584;2023-05-20T04:51:16;22.20;48.20
62809;DHT22;48848;39.002;-94.584;2023-05-20T04:53:42;22.10;48.40
62809;DHT22;48848;39.002;-94.584;2023-05-20T04:56:09;22.00;48.60
62809;DHT22;48848;39.002;-94.584;2023-05-20T04:58:35;21.80;49.00
62809;DHT22;48848;39.002;-94.584;2023-05-20T05:01:01;21.70;49.10
62809;DHT22;48848;39.002;-94.584;2023-05-20T05:03:27;21.60;49.30
62809;DHT22;48848;39.002;-94.584;2023-05-20T05:05:56;21.50;49.60
62809;DHT22;48848;39.002;-94.584;2023-05-20T05:08:22;21.30;49.90
62809;DHT22;48848;39.002;-94.584;2023-05-20T05:10:48;21.20;50.20
62809;DHT22;48848;39.002;-94.584;2023-05-20T05:13:13;21.00;50.40
62809;DHT22;48848;39.002;-94.584;2023-05-20T05:15:40;21.00;50.70
62809;DHT22;48848;39.002;-94.584;2023-05-20T05:18:05;20.90;50.80
62809;DHT22;48848;39.002;-94.584;2023-05-20T05:20:31;20.80;51.00
62809;DHT22;48848;39.002;-94.584;2023-05-20T05:22:57;20.80;51.20
62809;DHT22;48848;39.002;-94.584;2023-05-20T05:25:23;20.70;51.50
62809;DHT22;48848;39.002;-94.584;2023-05-20T05:27:49;20.60;51.70
62809;DHT22;48848;39.002;-94.584;2023-05-20T05:30:15;20.60;51.90
62809;DHT22;48848;39.002;-94.584;2023-05-20T05:32:41;20.50;52.00
62809;DHT22;48848;39.002;-94.584;2023-05-20T05:35:07;20.50;52.20
62809;DHT22;48848;39.002;-94.584;2023-05-20T05:37:33;20.40;52.10
62809;DHT22;48848;39.002;-94.584;2023-05-20T05:39:58;20.40;52.20
62809;DHT22;48848;39.002;-94.584;2023-05-20T05:42:24;20.30;52.50
62809;DHT22;48848;39.002;-94.584;2023-05-20T05:44:50;20.30;52.50
62809;DHT22;48848;39.002;-94.584;2023-05-20T05:47:16;20.20;52.60
62809;DHT22;48848;39.002;-94.584;2023-05-20T05:49:42;20.20;52.70
62809;DHT22;48848;39.002;-94.584;2023-05-20T05:52:08;20.10;52.60
62809;DHT22;48848;39.002;-94.584;2023-05-20T05:54:34;20.00;52.90
62809;DHT22;48848;39.002;-94.584;2023-05-20T05:57:00;19.90;53.00
62809;DHT22;48848;39.002;-94.584;2023-05-20T05:59:26;19.80;53.30
62809;DHT22;48848;39.002;-94.584;2023-05-20T06:01:51;19.80;53.50
62809;DHT22;48848;39.002;-94.584;2023-05-20T06:04:17;19.80;53.70
62809;DHT22;48848;39.002;-94.584;2023-05-20T06:06:43;19.70;53.70
62809;DHT22;48848;39.002;-94.584;2023-05-20T06:09:09;19.70;53.90
62809;DHT22;48848;39.002;-94.584;2023-05-20T06:11:35;19.60;54.00
62809;DHT22;48848;39.002;-94.584;2023-05-20T06:14:01;19.60;54.10
62809;DHT22;48848;39.002;-94.584;2023-05-20T06:16:27;19.50;54.10
62809;DHT22;48848;39.002;-94.584;2023-05-20T06:18:53;19.50;54.30
62809;DHT22;48848;39.002;-94.584;2023-05-20T06:21:22;19.50;54.30
62809;DHT22;48848;39.002;-94.584;2023-05-20T06:23:48;19.50;54.50
62809;DHT22;48848;39.002;-94.584;2023-05-20T06:26:14;19.40;54.50
62809;DHT22;48848;39.002;-94.584;2023-05-20T06:28:40;19.40;54.60
62809;DHT22;48848;39.002;-94.584;2023-05-20T06:31:06;19.40;54.80
62809;DHT22;48848;39.002;-94.584;2023-05-20T06:33:32;19.30;54.70
62809;DHT22;48848;39.002;-94.584;2023-05-20T06:35:58;19.30;54.80
62809;DHT22;48848;39.002;-94.584;2023-05-20T06:38:26;19.30;55.00
62809;DHT22;48848;39.002;-94.584;2023-05-20T06:40:51;19.30;55.40
62809;DHT22;48848;39.002;-94.584;2023-05-20T06:43:17;19.20;55.10
62809;DHT22;48848;39.002;-94.584;2023-05-20T06:45:43;19.20;55.20
62809;DHT22;48848;39.002;-94.584;2023-05-20T06:48:09;19.10;55.20
62809;DHT22;48848;39.002;-94.584;2023-05-20T06:50:35;19.10;55.30
62809;DHT22;48848;39.002;-94.584;2023-05-20T06:53:01;19.10;55.30
62809;DHT22;48848;39.002;-94.584;2023-05-20T06:55:27;19.10;55.40
62809;DHT22;48848;39.002;-94.584;2023-05-20T06:57:53;19.00;55.50
62809;DHT22;48848;39.002;-94.584;2023-05-20T07:00:19;19.00;55.50
62809;DHT22;48848;39.002;-94.584;2023-05-20T07:02:45;19.00;55.50
62809;DHT22;48848;39.002;-94.584;2023-05-20T07:05:11;19.00;55.70
62809;DHT22;48848;39.002;-94.584;2023-05-20T07:07:37;18.90;55.60
62809;DHT22;48848;39.002;-94.584;2023-05-20T07:10:04;18.90;55.70
62809;DHT22;48848;39.002;-94.584;2023-05-20T07:12:33;18.90;55.80
62809;DHT22;48848;39.002;-94.584;2023-05-20T07:14:59;18.90;55.90
62809;DHT22;48848;39.002;-94.584;2023-05-20T07:17:24;18.80;55.90
62809;DHT22;48848;39.002;-94.584;2023-05-20T07:19:50;18.80;55.90
62809;DHT22;48848;39.002;-94.584;2023-05-20T07:22:16;18.80;56.00
62809;DHT22;48848;39.002;-94.584;2023-05-20T07:24:42;18.80;56.10
62809;DHT22;48848;39.002;-94.584;2023-05-20T07:27:09;18.70;56.00
62809;DHT22;48848;39.002;-94.584;2023-05-20T07:29:35;18.70;56.00
62809;DHT22;48848;39.002;-94.584;2023-05-20T07:32:02;18.70;56.10
62809;DHT22;48848;39.002;-94.584;2023-05-20T07:34:28;18.70;56.10
62809;DHT22;48848;39.002;-94.584;2023-05-20T07:36:53;18.60;56.20
62809;DHT22;48848;39.002;-94.584;2023-05-20T07:39:19;18.60;56.20
62809;DHT22;48848;39.002;-94.584;2023-05-20T07:41:45;18.60;56.30
62809;DHT22;48848;39.002;-94.584;2023-05-20T07:44:11;18.60;56.30
62809;DHT22;48848;39.002;-94.584;2023-05-20T07:46:37;18.60;56.50
62809;DHT22;48848;39.002;-94.584;2023-05-20T07:49:04;18.50;56.40
62809;DHT22;48848;39.002;-94.584;2023-05-20T07:51:30;18.50;56.40
62809;DHT22;48848;39.002;-94.584;2023-05-20T07:53:56;18.40;56.50
62809;DHT22;48848;39.002;-94.584;2023-05-20T07:56:22;18.40;56.50
62809;DHT22;48848;39.002;-94.584;2023-05-20T07:58:54;18.40;56.50
62809;DHT22;48848;39.002;-94.584;2023-05-20T08:01:21;18.40;56.50
62809;DHT22;48848;39.002;-94.584;2023-05-20T08:03:47;18.40;56.60
62809;DHT22;48848;39.002;-94.584;2023-05-20T08:06:12;18.40;56.60
62809;DHT22;48848;39.002;-94.584;2023-05-20T08:08:38;18.40;56.70
62809;DHT22;48848;39.002;-94.584;2023-05-20T08:11:06;18.30;56.60
62809;DHT22;48848;39.002;-94.584;2023-05-20T08:13:32;18.30;56.70
62809;DHT22;48848;39.002;-94.584;2023-05-20T08:15:57;18.30;56.80
62809;DHT22;48848;39.002;-94.584;2023-05-20T08:18:23;18.20;56.80
62809;DHT22;48848;39.002;-94.584;2023-05-20T08:20:49;18.30;56.90
62809;DHT22;48848;39.002;-94.584;2023-05-20T08:23:15;18.20;56.90
62809;DHT22;48848;39.002;-94.584;2023-05-20T08:25:41;18.20;57.00
62809;DHT22;48848;39.002;-94.584;2023-05-20T08:28:07;18.20;57.10
62809;DHT22;48848;39.002;-94.584;2023-05-20T08:30:33;18.10;57.10
62809;DHT22;48848;39.002;-94.584;2023-05-20T08:32:59;18.10;57.10
62809;DHT22;48848;39.002;-94.584;2023-05-20T08:35:25;18.10;57.20
62809;DHT22;48848;39.002;-94.584;2023-05-20T08:37:51;18.10;57.20
62809;DHT22;48848;39.002;-94.584;2023-05-20T08:40:20;18.10;57.30
62809;DHT22;48848;39.002;-94.584;2023-05-20T08:42:47;18.00;57.20
62809;DHT22;48848;39.002;-94.584;2023-05-20T08:45:14;18.10;57.40
62809;DHT22;48848;39.002;-94.584;2023-05-20T08:47:41;18.00;57.40
62809;DHT22;48848;39.002;-94.584;2023-05-20T08:50:08;18.00;57.40
62809;DHT22;48848;39.002;-94.584;2023-05-20T08:52:36;18.00;57.40
62809;DHT22;48848;39.002;-94.584;2023-05-20T08:55:02;17.90;57.40
62809;DHT22;48848;39.002;-94.584;2023-05-20T08:57:29;17.90;57.40
62809;DHT22;48848;39.002;-94.584;2023-05-20T08:59:55;17.90;57.50
62809;DHT22;48848;39.002;-94.584;2023-05-20T09:02:21;17.90;57.50
62809;DHT22;48848;39.002;-94.584;2023-05-20T09:04:47;17.90;57.60
62809;DHT22;48848;39.002;-94.584;2023-05-20T09:07:13;17.80;57.60
62809;DHT22;48848;39.002;-94.584;2023-05-20T09:09:39;17.90;57.70
62809;DHT22;48848;39.002;-94.584;2023-05-20T09:12:05;17.80;57.70
62809;DHT22;48848;39.002;-94.584;2023-05-20T09:14:31;17.80;57.70
62809;DHT22;48848;39.002;-94.584;2023-05-20T09:16:57;17.80;57.70
62809;DHT22;48848;39.002;-94.584;2023-05-20T09:19:23;17.80;57.80
62809;DHT22;48848;39.002;-94.584;2023-05-20T09:21:51;17.80;57.80
62809;DHT22;48848;39.002;-94.584;2023-05-20T09:24:21;17.80;57.90
62809;DHT22;48848;39.002;-94.584;2023-05-20T09:26:47;17.70;57.90
62809;DHT22;48848;39.002;-94.584;2023-05-20T09:29:13;17.70;57.90
62809;DHT22;48848;39.002;-94.584;2023-05-20T09:31:39;17.70;58.00
62809;DHT22;48848;39.002;-94.584;2023-05-20T09:34:05;17.70;58.00
62809;DHT22;48848;39.002;-94.584;2023-05-20T09:36:32;17.60;58.00
62809;DHT22;48848;39.002;-94.584;2023-05-20T09:38:59;17.60;58.10
62809;DHT22;48848;39.002;-94.584;2023-05-20T09:41:29;17.60;58.00
62809;DHT22;48848;39.002;-94.584;2023-05-20T09:43:58;17.60;58.10
62809;DHT22;48848;39.002;-94.584;2023-05-20T09:46:25;17.60;58.10
62809;DHT22;48848;39.002;-94.584;2023-05-20T09:48:52;17.60;59.20
62809;DHT22;48848;39.002;-94.584;2023-05-20T09:51:18;17.50;58.20
62809;DHT22;48848;39.002;-94.584;2023-05-20T09:53:44;17.50;58.20
62809;DHT22;48848;39.002;-94.584;2023-05-20T09:56:10;17.50;58.20
62809;DHT22;48848;39.002;-94.584;2023-05-20T09:58:36;17.50;58.30
62809;DHT22;48848;39.002;-94.584;2023-05-20T10:01:02;17.50;58.40
62809;DHT22;48848;39.002;-94.584;2023-05-20T10:03:28;17.40;58.40
62809;DHT22;48848;39.002;-94.584;2023-05-20T10:06:08;17.50;58.50
62809;DHT22;48848;39.002;-94.584;2023-05-20T10:08:46;17.40;58.40
62809;DHT22;48848;39.002;-94.584;2023-05-20T10:11:21;17.40;58.50
62809;DHT22;48848;39.002;-94.584;2023-05-20T10:21:22;17.30;58.70
62809;DHT22;48848;39.002;-94.584;2023-05-20T10:23:49;17.30;58.70
62809;DHT22;48848;39.002;-94.584;2023-05-20T10:26:15;17.30;58.70
62809;DHT22;48848;39.002;-94.584;2023-05-20T10:28:42;17.30;58.70
62809;DHT22;48848;39.002;-94.584;2023-05-20T10:31:14;17.30;58.80
62809;DHT22;48848;39.002;-94.584;2023-05-20T10:33:41;17.20;58.80
62809;DHT22;48848;39.002;-94.584;2023-05-20T10:36:07;17.20;58.80
62809;DHT22;48848;39.002;-94.584;2023-05-20T10:38:33;17.20;58.80
62809;DHT22;48848;39.002;-94.584;2023-05-20T10:41:08;17.20;58.80
62809;DHT22;48848;39.002;-94.584;2023-05-20T10:43:37;17.10;58.80
62809;DHT22;48848;39.002;-94.584;2023-05-20T10:46:03;17.10;58.80
62809;DHT22;48848;39.002;-94.584;2023-05-20T10:48:31;17.20;59.90
62809;DHT22;48848;39.002;-94.584;2023-05-20T10:50:58;17.10;58.90
62809;DHT22;48848;39.002;-94.584;2023-05-20T10:53:28;17.10;59.00
62809;DHT22;48848;39.002;-94.584;2023-05-20T10:55:55;17.10;59.00
62809;DHT22;48848;39.002;-94.584;2023-05-20T10:58:22;17.10;59.00
62809;DHT22;48848;39.002;-94.584;2023-05-20T11:00:49;17.10;59.10
62809;DHT22;48848;39.002;-94.584;2023-05-20T11:03:15;17.00;59.00
62809;DHT22;48848;39.002;-94.584;2023-05-20T11:05:43;17.00;59.10
62809;DHT22;48848;39.002;-94.584;2023-05-20T11:08:09;17.00;59.20
62809;DHT22;48848;39.002;-94.584;2023-05-20T11:10:35;17.00;59.10
62809;DHT22;48848;39.002;-94.584;2023-05-20T11:13:01;16.90;59.10
62809;DHT22;48848;39.002;-94.584;2023-05-20T11:15:27;16.90;59.20
62809;DHT22;48848;39.002;-94.584;2023-05-20T11:17:55;16.90;59.20
62809;DHT22;48848;39.002;-94.584;2023-05-20T11:20:22;17.00;59.20
62809;DHT22;48848;39.002;-94.584;2023-05-20T11:22:54;16.90;59.30
62809;DHT22;48848;39.002;-94.584;2023-05-20T11:25:23;16.90;59.30
62809;DHT22;48848;39.002;-94.584;2023-05-20T11:27:49;16.90;59.30
62809;DHT22;48848;39.002;-94.584;2023-05-20T11:30:16;16.90;59.40
62809;DHT22;48848;39.002;-94.584;2023-05-20T11:32:58;16.80;59.30
62809;DHT22;48848;39.002;-94.584;2023-05-20T11:35:25;16.80;59.40
62809;DHT22;48848;39.002;-94.584;2023-05-20T11:37:55;16.80;59.40
62809;DHT22;48848;39.002;-94.584;2023-05-20T11:40:25;16.80;59.40
62809;DHT22;48848;39.002;-94.584;2023-05-20T11:42:55;16.80;60.40
62809;DHT22;48848;39.002;-94.584;2023-05-20T11:45:22;16.80;59.40
62809;DHT22;48848;39.002;-94.584;2023-05-20T11:47:57;16.80;59.40
62809;DHT22;48848;39.002;-94.584;2023-05-20T11:50:23;16.80;59.50
62809;DHT22;48848;39.002;-94.584;2023-05-20T11:52:56;16.80;59.40
62809;DHT22;48848;39.002;-94.584;2023-05-20T11:55:23;16.80;59.50
62809;DHT22;48848;39.002;-94.584;2023-05-20T11:57:49;16.80;59.50
62809;DHT22;48848;39.002;-94.584;2023-05-20T12:00:15;16.80;59.50
62809;DHT22;48848;39.002;-94.584;2023-05-20T12:02:41;16.80;59.50
62809;DHT22;48848;39.002;-94.584;2023-05-20T12:05:07;16.80;59.50
62809;DHT22;48848;39.002;-94.584;2023-05-20T12:07:32;16.80;59.50
62809;DHT22;48848;39.002;-94.584;2023-05-20T12:09:58;16.80;59.50
62809;DHT22;48848;39.002;-94.584;2023-05-20T12:12:24;16.80;59.50
62809;DHT22;48848;39.002;-94.584;2023-05-20T12:14:50;16.70;59.40
62809;DHT22;48848;39.002;-94.584;2023-05-20T12:17:16;16.80;59.40
62809;DHT22;48848;39.002;-94.584;2023-05-20T12:19:42;16.80;59.40
62809;DHT22;48848;39.002;-94.584;2023-05-20T12:22:07;16.70;59.30
62809;DHT22;48848;39.002;-94.584;2023-05-20T12:24:33;16.70;59.40
62809;DHT22;48848;39.002;-94.584;2023-05-20T12:26:59;16.70;59.50
62809;DHT22;48848;39.002;-94.584;2023-05-20T12:29:25;16.70;59.40
62809;DHT22;48848;39.002;-94.584;2023-05-20T12:31:51;16.70;59.50
62809;DHT22;48848;39.002;-94.584;2023-05-20T12:34:16;16.70;59.50
62809;DHT22;48848;39.002;-94.584;2023-05-20T12:36:42;16.70;59.50
62809;DHT22;48848;39.002;-94.584;2023-05-20T12:39:08;16.70;59.50
62809;DHT22;48848;39.002;-94.584;2023-05-20T12:41:35;16.70;59.50
62809;DHT22;48848;39.002;-94.584;2023-05-20T12:44:01;16.70;59.50
62809;DHT22;48848;39.002;-94.584;2023-05-20T12:46:27;16.70;59.60
62809;DHT22;48848;39.002;-94.584;2023-05-20T12:48:52;16.70;59.60
62809;DHT22;48848;39.002;-94.584;2023-05-20T12:51:18;16.80;59.50
62809;DHT22;48848;39.002;-94.584;2023-05-20T12:53:45;16.80;59.50
62809;DHT22;48848;39.002;-94.584;2023-05-20T12:56:11;16.80;59.40
62809;DHT22;48848;39.002;-94.584;2023-05-20T12:58:37;16.80;59.50
62809;DHT22;48848;39.002;-94.584;2023-05-20T13:01:02;16.80;59.30
62809;DHT22;48848;39.002;-94.584;2023-05-20T13:03:28;16.80;59.50
62809;DHT22;48848;39.002;-94.584;2023-05-20T13:05:54;16.80;59.50
62809;DHT22;48848;39.002;-94.584;2023-05-20T13:08:20;16.80;59.40
62809;DHT22;48848;39.002;-94.584;2023-05-20T13:10:46;16.80;59.40
62809;DHT22;48848;39.002;-94.584;2023-05-20T13:13:12;16.80;59.50
62809;DHT22;48848;39.002;-94.584;2023-05-20T13:15:38;16.80;59.60
62809;DHT22;48848;39.002;-94.584;2023-05-20T13:18:04;16.80;59.60
62809;DHT22;48848;39.002;-94.584;2023-05-20T13:20:31;16.80;59.80
62809;DHT22;48848;39.002;-94.584;2023-05-20T13:22:57;16.80;59.80
62809;DHT22;48848;39.002;-94.584;2023-05-20T13:25:23;16.80;59.90
62809;DHT22;48848;39.002;-94.584;2023-05-20T13:27:49;16.70;59.90
62809;DHT22;48848;39.002;-94.584;2023-05-20T13:30:15;16.80;60.00
62809;DHT22;48848;39.002;-94.584;2023-05-20T13:32:41;16.80;60.00
62809;DHT22;48848;39.002;-94.584;2023-05-20T13:35:07;16.80;59.90
62809;DHT22;48848;39.002;-94.584;2023-05-20T13:37:33;16.80;60.00
62809;DHT22;48848;39.002;-94.584;2023-05-20T13:39:58;16.80;60.00
62809;DHT22;48848;39.002;-94.584;2023-05-20T13:42:24;16.80;59.70
62809;DHT22;48848;39.002;-94.584;2023-05-20T13:44:50;16.80;60.20
62809;DHT22;48848;39.002;-94.584;2023-05-20T13:47:16;16.80;60.20
62809;DHT22;48848;39.002;-94.584;2023-05-20T13:49:42;16.80;60.20
62809;DHT22;48848;39.002;-94.584;2023-05-20T13:52:08;16.80;60.00
62809;DHT22;48848;39.002;-94.584;2023-05-20T13:54:34;16.80;60.20
62809;DHT22;48848;39.002;-94.584;2023-05-20T13:56:59;16.80;60.60
62809;DHT22;48848;39.002;-94.584;2023-05-20T13:59:26;16.80;60.90
62809;DHT22;48848;39.002;-94.584;2023-05-20T14:01:52;16.90;60.70
62809;DHT22;48848;39.002;-94.584;2023-05-20T14:04:18;16.80;60.60
62809;DHT22;48848;39.002;-94.584;2023-05-20T14:06:44;16.80;60.90
62809;DHT22;48848;39.002;-94.584;2023-05-20T14:09:10;16.80;61.00
62809;DHT22;48848;39.002;-94.584;2023-05-20T14:11:36;16.90;61.20
62809;DHT22;48848;39.002;-94.584;2023-05-20T14:14:02;16.90;61.10
62809;DHT22;48848;39.002;-94.584;2023-05-20T14:16:28;16.90;61.10
62809;DHT22;48848;39.002;-94.584;2023-05-20T14:18:54;16.90;60.80
62809;DHT22;48848;39.002;-94.584;2023-05-20T14:21:20;16.90;60.70
62809;DHT22;48848;39.002;-94.584;2023-05-20T14:23:46;16.90;60.80
62809;DHT22;48848;39.002;-94.584;2023-05-20T14:26:12;16.90;60.50
62809;DHT22;48848;39.002;-94.584;2023-05-20T14:28:37;16.90;60.30
62809;DHT22;48848;39.002;-94.584;2023-05-20T14:31:03;16.90;60.40
62809;DHT22;48848;39.002;-94.584;2023-05-20T14:33:29;16.90;60.20
62809;DHT22;48848;39.002;-94.584;2023-05-20T14:35:55;16.90;60.20
62809;DHT22;48848;39.002;-94.584;2023-05-20T14:38:21;16.90;60.00
62809;DHT22;48848;39.002;-94.584;2023-05-20T14:40:47;16.90;59.90
62809;DHT22;48848;39.002;-94.584;2023-05-20T14:43:13;16.90;59.70
62809;DHT22;48848;39.002;-94.584;2023-05-20T14:45:39;16.90;59.70
62809;DHT22;48848;39.002;-94.584;2023-05-20T14:48:05;16.90;59.40
62809;DHT22;48848;39.002;-94.584;2023-05-20T14:50:31;16.90;59.60
62809;DHT22;48848;39.002;-94.584;2023-05-20T14:52:57;16.90;59.20
62809;DHT22;48848;39.002;-94.584;2023-05-20T14:55:22;17.00;59.50
62809;DHT22;48848;39.002;-94.584;2023-05-20T14:57:48;16.90;59.30
62809;DHT22;48848;39.002;-94.584;2023-05-20T15:00:14;17.00;59.40
62809;DHT22;48848;39.002;-94.584;2023-05-20T15:02:40;17.00;59.10
62809;DHT22;48848;39.002;-94.584;2023-05-20T15:05:06;17.00;59.00